Time;durP1;ratioP1;P1;durP2;ratioP2;P2;SDS_P1;SDS_P2;PMS_P1;PMS_P2;Temp;Humidity;BMP_temperature;BMP_pressure;BME280_temperature;BME280_humidity;BME280_pressure;Samples;Min_cycle;Max_cycle;Signal;HPM_P1;HPM_P2
2022/03/15 00:00:49;;;;;;;9.95;5.90;;;4.10;99.90;;;;;;5036688;28;20067;-66
2022/03/15 00:03:15;;;;;;;13.25;6.25;;;4.60;99.90;;;;;;5036317;28;20037;-66
2022/03/15 00:05:40;;;;;;;13.35;6.63;;;4.10;99.90;;;;;;5054843;28;20033;-66
2022/03/15 00:08:07;;;;;;;12.38;6.28;;;;;;;;;;5054837;28;20494;-66
2022/03/15 00:10:33;;;;;;;11.27;5.65;;;4.40;99.90;;;;;;5035911;28;20496;-67
2022/03/15 00:12:59;;;;;;;20.65;8.43;;;4.70;99.90;;;;;;5054481;28;20124;-66
2022/03/15 00:15:26;;;;;;;13.75;7.78;;;4.80;99.90;;;;;;5019188;28;20486;-66
2022/03/15 00:17:52;;;;;;;12.45;6.53;;;4.60;99.90;;;;;;5036933;28;20152;-66
2022/03/15 00:20:22;;;;;;;14.32;7.43;;;4.70;99.90;;;;;;5054592;28;20052;-66
2022/03/15 00:22:49;;;;;;;20.73;9.30;;;4.50;99.90;;;;;;5053730;28;20044;-66
2022/03/15 00:25:16;;;;;;;18.77;9.00;;;4.70;99.90;;;;;;5054074;28;20440;-66
2022/03/15 00:27:46;;;;;;;14.30;6.90;;;4.30;99.90;;;;;;5054055;28;20033;-66
2022/03/15 00:30:12;;;;;;;9.65;6.03;;;4.60;99.90;;;;;;5053780;28;20702;-66
2022/03/15 00:32:38;;;;;;;16.83;7.68;;;4.40;99.90;;;;;;5036436;28;20098;-66
2022/03/15 00:35:16;;;;;;;14.77;6.97;;;4.70;99.90;;;;;;5036486;28;20048;-66
2022/03/15 00:37:42;;;;;;;18.42;8.38;;;4.40;99.90;;;;;;5035498;28;20049;-66
2022/03/15 00:40:09;;;;;;;19.77;8.95;;;4.10;99.90;;;;;;5036028;28;20120;-66
2022/03/15 00:42:34;;;;;;;12.63;7.18;;;4.50;99.90;;;;;;5035973;28;20510;-66
2022/03/15 00:45:01;;;;;;;14.80;8.10;;;4.60;99.90;;;;;;5034597;28;20041;-66
2022/03/15 00:47:28;;;;;;;14.00;9.95;;;4.70;99.90;;;;;;5033941;28;20042;-66
2022/03/15 00:49:53;;;;;;;15.98;8.32;;;4.30;99.90;;;;;;5016249;28;20030;-66
2022/03/15 00:52:19;;;;;;;14.55;8.27;;;4.60;99.90;;;;;;5015568;28;20041;-66
2022/03/15 00:54:44;;;;;;;17.95;9.30;;;5.10;99.90;;;;;;5033662;28;20037;-66
2022/03/15 00:57:11;;;;;;;13.75;8.05;;;4.40;99.90;;;;;;5033655;28;20513;-66
2022/03/15 00:59:37;;;;;;;16.52;10.10;;;4.80;99.90;;;;;;5049809;28;20493;-66
2022/03/15 01:02:03;;;;;;;16.02;9.23;;;4.80;99.90;;;;;;5053691;28;20045;-66
2022/03/15 01:04:29;;;;;;;23.92;11.00;;;4.90;99.90;;;;;;5053656;28;20236;-66
2022/03/15 01:06:54;;;;;;;20.52;11.40;;;4.70;99.90;;;;;;5052693;28;20497;-66
2022/03/15 01:09:20;;;;;;;18.52;9.68;;;4.80;99.90;;;;;;5053335;28;20044;-66
2022/03/15 01:11:46;;;;;;;17.40;9.48;;;4.70;99.90;;;;;;5034724;28;20033;-66
2022/03/15 01:14:12;;;;;;;16.33;8.88;;;4.70;99.90;;;;;;5053234;28;20120;-66
2022/03/15 01:16:37;;;;;;;18.83;10.10;;;4.70;99.90;;;;;;5054043;28;20167;-66
2022/03/15 01:19:06;;;;;;;21.83;11.07;;;4.70;99.90;;;;;;5052631;28;20065;-66
2022/03/15 01:21:34;;;;;;;17.20;10.23;;;4.80;99.90;;;;;;5035530;28;20048;-66
2022/03/15 01:24:00;;;;;;;17.52;10.18;;;5.00;99.90;;;;;;5052769;28;20055;-66
2022/03/15 01:26:26;;;;;;;14.45;8.65;;;4.70;99.90;;;;;;5052551;28;20651;-66
2022/03/15 01:28:52;;;;;;;20.08;10.88;;;4.30;99.90;;;;;;5003756;28;20464;-66
2022/03/15 01:31:18;;;;;;;17.63;9.52;;;4.90;99.90;;;;;;5015106;28;20113;-66
2022/03/15 01:33:43;;;;;;;15.52;9.13;;;4.80;99.90;;;;;;4998538;28;20080;-66
2022/03/15 01:36:09;;;;;;;16.73;9.00;;;4.80;99.90;;;;;;5032913;28;20125;-66
2022/03/15 01:38:35;;;;;;;16.38;9.25;;;4.60;99.90;;;;;;5015670;28;20486;-66
2022/03/15 01:41:01;;;;;;;16.33;9.68;;;4.50;99.90;;;;;;5051680;28;20143;-66
2022/03/15 01:43:27;;;;;;;20.15;11.02;;;4.50;99.90;;;;;;5052966;28;20059;-66
2022/03/15 01:45:56;;;;;;;26.73;11.27;;;4.20;99.90;;;;;;5035237;28;20092;-66
2022/03/15 01:48:21;;;;;;;19.38;10.93;;;4.40;99.90;;;;;;5052343;28;20438;-66
2022/03/15 01:50:47;;;;;;;18.92;9.85;;;4.60;99.90;;;;;;5052624;28;20036;-66
2022/03/15 01:53:15;;;;;;;17.15;9.93;;;4.50;99.90;;;;;;5034600;28;20045;-66
2022/03/15 01:55:41;;;;;;;25.85;10.57;;;4.30;99.90;;;;;;5051726;28;20072;-66
2022/03/15 01:58:07;;;;;;;16.05;9.07;;;;;;;;;;5052460;28;20549;-66
2022/03/15 02:00:34;;;;;;;16.92;10.43;;;5.10;99.90;;;;;;5034707;28;20064;-66
2022/03/15 02:03:01;;;;;;;18.00;9.73;;;4.40;99.90;;;;;;5033600;28;20111;-66
2022/03/15 02:05:26;;;;;;;16.50;9.90;;;5.40;99.90;;;;;;5034301;28;20094;-66
2022/03/15 02:07:52;;;;;;;16.80;10.05;;;;;;;;;;5034209;28;20124;-66
2022/03/15 02:10:18;;;;;;;20.23;10.38;;;4.60;99.90;;;;;;5052208;28;20075;-66
2022/03/15 02:12:44;;;;;;;18.63;10.20;;;4.60;99.90;;;;;;5052177;28;20505;-66
2022/03/15 02:15:09;;;;;;;18.33;9.43;;;4.30;99.90;;;;;;5033493;28;20102;-66
2022/03/15 02:17:36;;;;;;;16.92;9.55;;;4.50;99.90;;;;;;5034669;28;20041;-66
2022/03/15 02:20:07;;;;;;;18.25;10.48;;;4.80;99.90;;;;;;5052075;28;20447;-66
2022/03/15 02:22:33;;;;;;;21.85;10.90;;;4.50;99.90;;;;;;5051483;28;20187;-66
2022/03/15 02:24:58;;;;;;;21.23;12.32;;;4.40;99.90;;;;;;5051923;28;20112;-66
2022/03/15 02:27:24;;;;;;;20.75;10.50;;;4.50;99.90;;;;;;5052125;28;20115;-66
2022/03/15 02:29:50;;;;;;;23.73;11.40;;;4.60;99.90;;;;;;5051383;28;20431;-66
2022/03/15 02:32:16;;;;;;;22.48;12.35;;;;;;;;;;5052079;28;20051;-66
2022/03/15 02:34:42;;;;;;;21.48;11.80;;;;;;;;;;5051693;28;20037;-66
2022/03/15 02:37:08;;;;;;;18.35;10.75;;;5.20;99.90;;;;;;5033132;28;20461;-66
2022/03/15 02:39:34;;;;;;;26.15;11.75;;;4.90;99.90;;;;;;5051953;28;20033;-66
2022/03/15 02:42:00;;;;;;;19.17;10.50;;;5.10;99.90;;;;;;5033814;28;20053;-66
2022/03/15 02:44:26;;;;;;;17.80;9.90;;;5.20;99.90;;;;;;5033368;28;20120;-66
2022/03/15 02:46:52;;;;;;;20.48;11.23;;;5.00;99.90;;;;;;5051876;28;20079;-66
2022/03/15 02:49:18;;;;;;;18.20;11.00;;;5.60;99.90;;;;;;5033798;28;20048;-67
2022/03/15 02:51:45;;;;;;;22.48;11.48;;;4.80;99.90;;;;;;5033313;28;20069;-66
2022/03/15 02:54:11;;;;;;;23.95;11.63;;;5.50;99.90;;;;;;5026761;28;20045;-66
2022/03/15 02:56:42;;;;;;;17.33;10.23;;;5.50;99.90;;;;;;5032154;28;20095;-66
2022/03/15 02:59:14;;;;;;;17.95;10.60;;;4.90;99.90;;;;;;5046437;28;20552;-66
2022/03/15 03:01:45;;;;;;;16.00;10.70;;;5.20;99.90;;;;;;5031821;28;20164;-66
2022/03/15 03:04:11;;;;;;;26.38;11.70;;;5.30;99.90;;;;;;5030745;28;20441;-66
2022/03/15 03:06:37;;;;;;;21.83;12.82;;;5.40;99.90;;;;;;5032252;28;20037;-66
2022/03/15 03:09:03;;;;;;;25.80;11.18;;;5.50;99.90;;;;;;5032883;28;20034;-66
2022/03/15 03:11:29;;;;;;;21.05;11.07;;;;;;;;;;5031044;28;20033;-66
2022/03/15 03:13:57;;;;;;;20.35;12.30;;;5.30;99.90;;;;;;5034493;28;20048;-66
2022/03/15 03:16:23;;;;;;;20.42;11.77;;;5.40;99.90;;;;;;5035623;28;20049;-66
2022/03/15 03:18:54;;;;;;;21.55;10.45;;;;;;;;;;5034731;28;20046;-66
2022/03/15 03:21:21;;;;;;;21.52;10.93;;;;;;;;;;5035743;28;20057;-66
2022/03/15 03:23:51;;;;;;;17.38;10.10;;;;;;;;;;5017605;28;20180;-66
2022/03/15 03:26:16;;;;;;;23.33;12.15;;;6.00;99.90;;;;;;5034705;28;20108;-66
2022/03/15 03:28:42;;;;;;;22.73;11.20;;;5.50;99.90;;;;;;5035433;28;20140;-66
2022/03/15 03:31:09;;;;;;;23.63;13.88;;;5.50;99.90;;;;;;5035337;28;20033;-66
2022/03/15 03:33:35;;;;;;;20.65;10.82;;;5.50;99.90;;;;;;5034879;28;20048;-66
2022/03/15 03:36:02;;;;;;;22.35;11.48;;;5.40;99.90;;;;;;5035419;28;20572;-66
2022/03/15 03:38:28;;;;;;;16.85;9.40;;;5.50;99.90;;;;;;5040017;28;20036;-66
2022/03/15 03:40:55;;;;;;;19.58;11.88;;;5.60;99.90;;;;;;5054181;28;20482;-66
2022/03/15 03:43:21;;;;;;;20.67;12.98;;;6.00;99.90;;;;;;5054985;28;20059;-66
2022/03/15 03:45:46;;;;;;;20.77;10.88;;;5.90;99.90;;;;;;5054950;28;20033;-66
2022/03/15 03:48:12;;;;;;;23.58;12.43;;;6.00;99.90;;;;;;5054313;28;20033;-66
2022/03/15 03:50:39;;;;;;;23.52;10.40;;;5.80;99.90;;;;;;5055356;28;20029;-66
2022/03/15 03:53:06;;;;;;;22.52;11.25;;;5.90;99.90;;;;;;5055102;28;20091;-66
2022/03/15 03:55:32;;;;;;;16.67;11.10;;;5.80;99.90;;;;;;5036252;28;20045;-66
2022/03/15 03:57:58;;;;;;;20.25;10.48;;;6.10;99.90;;;;;;5037022;28;20114;-66
2022/03/15 04:00:24;;;;;;;26.73;12.15;;;;;;;;;;5054488;28;20479;-66
2022/03/15 04:02:51;;;;;;;21.02;12.30;;;5.50;99.90;;;;;;5036442;28;20049;-66
2022/03/15 04:05:16;;;;;;;23.23;12.55;;;5.80;99.90;;;;;;5020298;28;20047;-66
2022/03/15 04:07:43;;;;;;;18.73;11.48;;;5.60;99.90;;;;;;5053833;28;20029;-66
2022/03/15 04:10:10;;;;;;;24.90;12.50;;;5.50;99.90;;;;;;5036837;28;20116;-66
2022/03/15 04:12:36;;;;;;;24.38;12.25;;;5.80;99.90;;;;;;5037078;28;20083;-66
2022/03/15 04:15:06;;;;;;;18.48;10.82;;;5.30;99.90;;;;;;5053618;28;20064;-66
2022/03/15 04:17:32;;;;;;;21.50;12.52;;;5.80;99.90;;;;;;5054806;28;20043;-66
2022/03/15 04:19:58;;;;;;;20.08;11.75;;;5.90;99.90;;;;;;5036583;28;20037;-66
2022/03/15 04:22:23;;;;;;;23.60;11.43;;;6.00;99.90;;;;;;5053271;28;20091;-66
2022/03/15 04:24:49;;;;;;;18.95;12.15;;;5.60;99.90;;;;;;5036242;28;20055;-66
2022/03/15 04:27:16;;;;;;;18.42;10.95;;;5.80;99.90;;;;;;5054155;28;20040;-66
2022/03/15 04:29:42;;;;;;;19.60;11.05;;;6.00;99.90;;;;;;5053377;28;20029;-66
2022/03/15 04:32:08;;;;;;;20.88;11.38;;;6.30;99.90;;;;;;5036188;28;20490;-66
2022/03/15 04:34:34;;;;;;;15.60;10.95;;;5.90;99.90;;;;;;5054268;28;20490;-66
2022/03/15 04:37:00;;;;;;;22.35;12.60;;;6.00;99.90;;;;;;5035289;28;20106;-66
2022/03/15 04:39:26;;;;;;;23.40;12.48;;;;;;;;;;5035887;28;20112;-66
2022/03/15 04:41:52;;;;;;;23.55;11.85;;;6.10;99.90;;;;;;5036027;28;20053;-66
2022/03/15 04:44:18;;;;;;;28.27;13.07;;;5.80;99.90;;;;;;5035199;28;20052;-66
2022/03/15 04:46:44;;;;;;;18.20;11.15;;;5.40;99.90;;;;;;5019358;28;20519;-66
2022/03/15 04:49:10;;;;;;;21.38;13.20;;;5.40;99.90;;;;;;5054019;28;20041;-66
2022/03/15 04:51:36;;;;;;;22.48;13.48;;;5.90;99.90;;;;;;5053418;28;20082;-66
2022/03/15 04:54:02;;;;;;;26.33;14.45;;;5.50;99.90;;;;;;5038689;28;20047;-66
2022/03/15 04:56:28;;;;;;;21.75;13.27;;;;;;;;;;5016054;28;20077;-66
2022/03/15 04:58:54;;;;;;;24.25;13.90;;;5.20;99.90;;;;;;5032817;28;20049;-66
2022/03/15 05:01:19;;;;;;;27.13;13.27;;;5.20;99.90;;;;;;5016276;28;20057;-66
2022/03/15 05:03:45;;;;;;;24.95;12.95;;;;;;;;;;5038513;28;20459;-66
2022/03/15 05:06:11;;;;;;;18.13;11.73;;;5.80;99.90;;;;;;5053547;28;20047;-66
2022/03/15 05:08:37;;;;;;;22.08;11.52;;;5.30;99.90;;;;;;5036026;28;20123;-66
2022/03/15 05:11:06;;;;;;;25.10;14.90;;;5.20;99.90;;;;;;5052692;28;20071;-66
2022/03/15 05:13:34;;;;;;;24.73;14.32;;;5.40;99.90;;;;;;5035650;28;20045;-66
2022/03/15 05:16:00;;;;;;;23.92;14.02;;;5.50;99.90;;;;;;5035381;28;20056;-66
2022/03/15 05:18:25;;;;;;;21.55;14.00;;;5.30;99.90;;;;;;5052626;28;20055;-66
2022/03/15 05:20:51;;;;;;;19.85;13.70;;;5.40;99.90;;;;;;5053326;28;20047;-66
2022/03/15 05:23:17;;;;;;;23.85;12.57;;;5.40;99.90;;;;;;5044304;28;20088;-66
2022/03/15 05:25:42;;;;;;;23.88;11.68;;;5.10;99.90;;;;;;5032296;28;20029;-66
2022/03/15 05:28:09;;;;;;;23.30;13.63;;;5.10;99.90;;;;;;5015569;28;20041;-66
2022/03/15 05:30:35;;;;;;;20.60;11.05;;;4.90;99.90;;;;;;5049027;28;20049;-66
2022/03/15 05:33:01;;;;;;;21.95;14.48;;;5.50;99.90;;;;;;4998523;28;20049;-66
2022/03/15 05:35:27;;;;;;;22.77;12.63;;;5.40;99.90;;;;;;5034356;28;21105;-66
2022/03/15 05:37:53;;;;;;;18.15;11.27;;;;;;;;;;5032941;28;20049;-66
2022/03/15 05:40:20;;;;;;;28.95;15.10;;;;;;;;;;5032427;28;20052;-66
2022/03/15 05:42:46;;;;;;;22.58;14.57;;;5.70;99.90;;;;;;5027807;28;20128;-66
2022/03/15 05:45:11;;;;;;;24.05;14.57;;;5.10;99.90;;;;;;5031764;28;20084;-66
2022/03/15 05:47:37;;;;;;;23.58;13.80;;;5.40;99.90;;;;;;5031446;28;20544;-66
2022/03/15 05:50:04;;;;;;;23.90;15.23;;;5.40;99.90;;;;;;5031493;28;20064;-66
2022/03/15 05:52:30;;;;;;;24.70;14.35;;;5.40;99.90;;;;;;5015181;28;20074;-66
2022/03/15 05:54:55;;;;;;;26.33;14.40;;;5.20;99.90;;;;;;5031781;28;20044;-66
2022/03/15 05:57:21;;;;;;;28.55;16.27;;;5.00;99.90;;;;;;5031363;28;20045;-66
2022/03/15 05:59:47;;;;;;;22.95;14.30;;;5.60;99.90;;;;;;5031681;28;20043;-62
2022/03/15 06:02:13;;;;;;;30.75;16.23;;;5.10;99.90;;;;;;5030410;28;20383;-62
2022/03/15 06:04:38;;;;;;;27.17;15.88;;;5.40;99.90;;;;;;5032853;28;20108;-62
2022/03/15 06:07:04;;;;;;;27.42;16.75;;;5.70;99.90;;;;;;5030579;28;20040;-62
2022/03/15 06:09:30;;;;;;;23.50;16.55;;;;;;;;;;5031272;28;20569;-62
2022/03/15 06:11:56;;;;;;;28.10;15.50;;;5.70;99.90;;;;;;5032323;28;20553;-62
2022/03/15 06:14:22;;;;;;;23.25;15.15;;;5.20;99.90;;;;;;5030111;28;20509;-62
2022/03/15 06:16:47;;;;;;;28.67;16.58;;;5.30;99.90;;;;;;5014562;28;20046;-62
2022/03/15 06:19:13;;;;;;;25.30;14.73;;;5.60;99.90;;;;;;5030968;28;20045;-62
2022/03/15 06:21:39;;;;;;;32.88;16.88;;;5.50;99.90;;;;;;5031891;28;20465;-62
2022/03/15 06:24:07;;;;;;;33.33;17.67;;;5.30;99.90;;;;;;5032144;28;20568;-62
2022/03/15 06:26:32;;;;;;;25.58;18.02;;;5.20;99.90;;;;;;5031258;28;20041;-62
2022/03/15 06:28:59;;;;;;;31.50;18.60;;;5.60;99.90;;;;;;5030182;28;20449;-62
2022/03/15 06:31:27;;;;;;;32.63;19.33;;;5.50;99.90;;;;;;5030943;28;20050;-62
2022/03/15 06:33:52;;;;;;;24.88;15.15;;;5.40;99.90;;;;;;5032273;28;20048;-62
2022/03/15 06:36:18;;;;;;;31.42;17.60;;;6.00;99.90;;;;;;5031003;28;20124;-63
2022/03/15 06:38:43;;;;;;;24.13;15.02;;;5.60;99.90;;;;;;5030913;28;20053;-62
2022/03/15 06:41:12;;;;;;;26.30;16.17;;;5.80;99.90;;;;;;5033998;28;20057;-62
2022/03/15 06:43:39;;;;;;;24.10;16.05;;;6.00;99.90;;;;;;5033750;28;20048;-62
2022/03/15 06:46:06;;;;;;;24.98;16.75;;;5.70;99.90;;;;;;5034413;28;20119;-62
2022/03/15 06:48:31;;;;;;;29.25;17.42;;;6.00;99.90;;;;;;5051671;28;20036;-62
2022/03/15 06:50:57;;;;;;;27.58;17.25;;;6.20;99.90;;;;;;5033175;28;20048;-62
2022/03/15 06:53:23;;;;;;;33.90;17.80;;;6.10;99.90;;;;;;5051547;28;20098;-62
2022/03/15 06:55:49;;;;;;;28.50;17.63;;;5.60;99.90;;;;;;5034105;28;20064;-62
2022/03/15 06:58:14;;;;;;;34.08;17.95;;;5.80;99.90;;;;;;5033032;28;20045;-62
2022/03/15 07:00:40;;;;;;;32.65;16.33;;;;;;;;;;5033999;28;20045;-62
2022/03/15 07:03:06;;;;;;;34.97;16.20;;;;;;;;;;5033706;28;20068;-62
2022/03/15 07:05:32;;;;;;;28.10;16.25;;;;;;;;;;5032466;28;20190;-63
2022/03/15 07:07:58;;;;;;;31.63;18.27;;;6.20;99.90;;;;;;5053040;28;20073;-62
2022/03/15 07:10:24;;;;;;;30.50;17.27;;;6.20;99.90;;;;;;5032620;28;20049;-63
2022/03/15 07:12:50;;;;;;;27.48;15.93;;;6.10;99.90;;;;;;5050367;28;20055;-62
2022/03/15 07:15:17;;;;;;;31.67;17.02;;;6.20;99.90;;;;;;5023039;28;20045;-62
2022/03/15 07:17:57;;;;;;;29.33;17.48;;;6.10;99.90;;;;;;5018464;28;20052;-62
2022/03/15 07:20:24;;;;;;;34.10;17.85;;;6.90;99.90;;;;;;5052360;28;20076;-62
2022/03/15 07:22:51;;;;;;;34.72;19.17;;;6.70;99.90;;;;;;5049367;28;20049;-62
2022/03/15 07:25:17;;;;;;;37.63;22.05;;;;;;;;;;5048261;28;20075;-63
2022/03/15 07:27:43;;;;;;;39.75;22.52;;;6.50;99.90;;;;;;5030953;28;20226;-62
2022/03/15 07:30:09;;;;;;;40.72;23.45;;;6.70;99.90;;;;;;5049398;28;20136;-62
2022/03/15 07:32:35;;;;;;;40.05;25.73;;;6.70;99.90;;;;;;5031070;28;20128;-62
2022/03/15 07:35:01;;;;;;;44.15;26.67;;;6.70;99.90;;;;;;5031456;28;20127;-63
2022/03/15 07:37:27;;;;;;;41.95;25.52;;;6.70;99.90;;;;;;5049266;28;20136;-62
2022/03/15 07:39:53;;;;;;;39.97;25.55;;;6.80;99.90;;;;;;5046901;28;20430;-62
2022/03/15 07:42:19;;;;;;;48.13;25.00;;;7.10;99.90;;;;;;5030079;28;20379;-62
2022/03/15 07:44:45;;;;;;;41.97;24.20;;;6.90;99.90;;;;;;5048975;28;20084;-62
2022/03/15 07:47:15;;;;;;;48.17;26.13;;;6.90;99.90;;;;;;5048004;28;20478;-62
2022/03/15 07:49:42;;;;;;;45.05;24.73;;;7.20;99.90;;;;;;5030801;28;20098;-62
2022/03/15 07:52:08;;;;;;;35.92;22.08;;;7.10;99.90;;;;;;5048589;28;20033;-62
2022/03/15 07:54:34;;;;;;;41.88;22.55;;;7.10;99.90;;;;;;5046654;28;20041;-62
2022/03/15 07:57:00;;;;;;;36.30;22.58;;;7.20;99.90;;;;;;5048733;28;20095;-62
2022/03/15 07:59:26;;;;;;;36.58;20.55;;;;;;;;;;5050941;28;20037;-62
2022/03/15 08:01:52;;;;;;;33.97;20.90;;;;;;;;;;5033973;28;20132;-62
2022/03/15 08:04:18;;;;;;;33.08;19.98;;;7.40;99.90;;;;;;5034148;28;20128;-62
2022/03/15 08:06:44;;;;;;;32.15;18.48;;;7.60;99.90;;;;;;5033433;28;20056;-62
2022/03/15 08:09:14;;;;;;;28.30;17.45;;;;;;;;;;5034159;28;20041;-62
2022/03/15 08:11:40;;;;;;;31.73;18.60;;;;;;;;;;5034214;28;20087;-62
2022/03/15 08:14:07;;;;;;;33.33;17.40;;;7.50;99.90;;;;;;5051479;28;20485;-62
2022/03/15 08:16:33;;;;;;;29.90;17.10;;;7.70;99.90;;;;;;5051799;28;20041;-61
2022/03/15 08:18:59;;;;;;;24.95;16.17;;;;;;;;;;5051659;28;20110;-62
2022/03/15 08:21:26;;;;;;;31.48;16.67;;;7.50;99.90;;;;;;5051494;28;20037;-62
2022/03/15 08:23:52;;;;;;;24.00;16.05;;;8.10;99.90;;;;;;5033745;28;20037;-62
2022/03/15 08:26:19;;;;;;;24.63;14.68;;;;;;;;;;5047418;28;20037;-63
2022/03/15 08:28:47;;;;;;;25.85;15.43;;;7.70;99.90;;;;;;5047292;28;20155;-63
2022/03/15 08:31:12;;;;;;;28.10;15.15;;;7.70;99.90;;;;;;5032723;28;20049;-63
2022/03/15 08:33:38;;;;;;;29.10;14.43;;;7.80;99.90;;;;;;5033423;28;20045;-62
2022/03/15 08:36:04;;;;;;;26.73;15.13;;;8.10;99.90;;;;;;5050399;28;20068;-62
2022/03/15 08:38:31;;;;;;;22.40;14.00;;;;;;;;;;5032939;28;20045;-62
2022/03/15 08:40:57;;;;;;;28.30;15.35;;;;;;;;;;5032678;28;20413;-62
2022/03/15 08:43:24;;;;;;;28.40;16.40;;;;;;;;;;5031968;28;20049;-63
2022/03/15 08:45:50;;;;;;;28.27;15.32;;;;;;;;;;5067585;28;20052;-62
2022/03/15 08:48:16;;;;;;;35.08;16.75;;;;;;;;;;5053199;28;20123;-62
2022/03/15 08:50:42;;;;;;;26.13;16.00;;;;;;;;;;5051982;28;20083;-62
2022/03/15 08:53:08;;;;;;;38.40;20.63;;;;;;;;;;5033841;28;20049;-62
2022/03/15 08:55:35;;;;;;;29.42;17.58;;;;;;;;;;5049189;28;20041;-63
2022/03/15 08:58:02;;;;;;;29.23;17.33;;;8.00;99.90;;;;;;5032733;28;20056;-63
2022/03/15 09:00:28;;;;;;;30.40;17.73;;;8.50;99.90;;;;;;5049625;28;20592;-63
2022/03/15 09:02:54;;;;;;;40.03;21.85;;;8.80;99.90;;;;;;5015309;28;20040;-63
2022/03/15 09:05:20;;;;;;;33.55;19.63;;;;;;;;;;5050471;28;20103;-63
2022/03/15 09:07:53;;;;;;;32.60;21.00;;;8.10;99.90;;;;;;5032687;28;20068;-63
2022/03/15 09:10:20;;;;;;;31.05;18.13;;;8.50;99.90;;;;;;5048547;28;20083;-63
2022/03/15 09:12:46;;;;;;;32.65;18.92;;;;;;;;;;5032362;28;20106;-63
2022/03/15 09:15:12;;;;;;;45.35;26.05;;;8.50;99.90;;;;;;5032293;28;20116;-63
2022/03/15 09:17:38;;;;;;;36.10;24.23;;;;;;;;;;5044851;28;20382;-62
2022/03/15 09:20:05;;;;;;;38.83;20.55;;;8.30;99.90;;;;;;5070591;28;20048;-63
2022/03/15 09:22:31;;;;;;;30.77;21.10;;;;;;;;;;5034152;28;20059;-63
2022/03/15 09:24:57;;;;;;;33.78;19.58;;;;;;;;;;5032247;28;20036;-63
2022/03/15 09:27:23;;;;;;;31.63;19.60;;;;;;;;;;5031806;28;20041;-62
2022/03/15 09:29:49;;;;;;;34.03;19.52;;;9.10;99.90;;;;;;5031101;28;20045;-62
2022/03/15 09:32:15;;;;;;;31.48;17.25;;;9.30;99.90;;;;;;5049333;28;20124;-63
2022/03/15 09:34:43;;;;;;;30.58;19.38;;;8.60;99.90;;;;;;5050230;28;20049;-63
2022/03/15 09:37:09;;;;;;;36.45;20.25;;;8.80;99.90;;;;;;5049752;28;20106;-63
2022/03/15 09:39:35;;;;;;;29.58;17.13;;;9.30;99.90;;;;;;5049224;28;20128;-63
2022/03/15 09:42:03;;;;;;;34.13;19.17;;;9.20;99.90;;;;;;5049186;28;20119;-62
2022/03/15 09:44:30;;;;;;;30.27;18.95;;;;;;;;;;5050053;28;20057;-63
2022/03/15 09:47:02;;;;;;;32.00;19.48;;;9.50;99.90;;;;;;5031798;28;20048;-63
2022/03/15 09:49:29;;;;;;;30.45;18.63;;;9.50;99.90;;;;;;5048229;28;20583;-64
2022/03/15 09:51:56;;;;;;;34.80;20.63;;;9.80;99.90;;;;;;5049081;28;20076;-64
2022/03/15 09:54:24;;;;;;;30.67;19.38;;;9.80;99.90;;;;;;5046680;28;20569;-64
2022/03/15 09:56:51;;;;;;;30.20;19.38;;;;;;;;;;5049742;28;20072;-64
2022/03/15 09:59:22;;;;;;;30.20;20.00;;;9.90;99.90;;;;;;5048439;28;20482;-64
2022/03/15 10:01:51;;;;;;;32.60;20.83;;;10.50;99.90;;;;;;5029888;28;20088;-64
2022/03/15 10:04:19;;;;;;;32.00;19.23;;;11.10;99.90;;;;;;5040146;28;20397;-64
2022/03/15 10:06:45;;;;;;;30.60;20.13;;;10.20;99.90;;;;;;5030953;28;20041;-64
2022/03/15 10:09:12;;;;;;;29.83;19.98;;;10.70;99.90;;;;;;5031664;28;20079;-64
2022/03/15 10:11:38;;;;;;;36.17;19.88;;;10.10;99.90;;;;;;5050007;28;20116;-64
2022/03/15 10:14:05;;;;;;;29.48;19.70;;;10.70;99.90;;;;;;5048880;28;20457;-64
2022/03/15 10:16:36;;;;;;;28.00;17.77;;;10.40;99.90;;;;;;5049602;28;20043;-64
2022/03/15 10:19:02;;;;;;;25.00;18.67;;;10.70;99.90;;;;;;5051547;28;20567;-63
2022/03/15 10:21:45;;;;;;;35.17;25.77;;;11.00;99.90;;;;;;5050432;28;20041;-63
2022/03/15 10:24:14;;;;;;;33.80;21.25;;;;;;;;;;5052228;28;20041;-62
2022/03/15 10:26:41;;;;;;;26.48;17.92;;;;;;;;;;5034312;28;20051;-62
2022/03/15 10:29:07;;;;;;;29.33;18.55;;;11.00;99.90;;;;;;5033820;28;20037;-62
2022/03/15 10:31:34;;;;;;;31.83;17.25;;;;;;;;;;5034060;28;20040;-62
2022/03/15 10:34:03;;;;;;;26.80;17.48;;;11.10;99.90;;;;;;5033906;28;20129;-60
2022/03/15 10:36:45;;;;;;;32.70;19.15;;;11.20;99.90;;;;;;5022074;28;20505;-61
2022/03/15 10:39:14;;;;;;;30.83;19.38;;;11.00;99.90;;;;;;5051959;28;20056;-62
2022/03/15 10:41:57;;;;;;;30.63;19.70;;;11.10;99.90;;;;;;5055556;28;20060;-62
2022/03/15 10:44:23;;;;;;;29.13;18.48;;;;;;;;;;5051956;28;20041;-62
2022/03/15 10:47:03;;;;;;;33.47;15.90;;;11.00;99.90;;;;;;5051991;28;20040;-62
2022/03/15 10:49:29;;;;;;;28.75;18.67;;;11.50;99.90;;;;;;5051152;28;20040;-62
2022/03/15 10:51:54;;;;;;;26.10;16.17;;;11.40;99.90;;;;;;5034133;28;20117;-62
2022/03/15 10:54:24;;;;;;;26.42;16.15;;;11.30;99.90;;;;;;5034345;28;20120;-62
2022/03/15 10:56:55;;;;;;;22.60;15.02;;;11.10;99.90;;;;;;5033423;28;20048;-62
2022/03/15 10:59:22;;;;;;;25.42;16.83;;;;;;;;;;5052044;28;20131;-62
2022/03/15 11:01:49;;;;;;;25.15;16.25;;;11.40;99.90;;;;;;5033571;28;20085;-62
2022/03/15 11:04:15;;;;;;;23.75;18.13;;;11.60;99.90;;;;;;5051000;28;20128;-62
2022/03/15 11:06:44;;;;;;;23.52;16.55;;;11.60;99.90;;;;;;5051868;28;20029;-62
2022/03/15 11:09:23;;;;;;;22.63;15.80;;;11.50;99.90;;;;;;5051762;28;20045;-62
2022/03/15 11:12:08;;;;;;;23.92;15.70;;;11.90;99.90;;;;;;5033239;28;20037;-62
2022/03/15 11:14:41;;;;;;;25.80;17.70;;;11.80;99.90;;;;;;5034124;28;20124;-62
2022/03/15 11:17:09;;;;;;;26.35;15.45;;;12.00;99.90;;;;;;5050599;28;20056;-61
2022/03/15 11:19:39;;;;;;;21.67;14.45;;;12.00;99.90;;;;;;5033806;28;20478;-62
2022/03/15 11:22:06;;;;;;;26.08;15.93;;;12.10;99.90;;;;;;5033989;28;20041;-62
2022/03/15 11:24:38;;;;;;;24.30;15.68;;;12.00;99.90;;;;;;5033169;28;20033;-62
2022/03/15 11:27:07;;;;;;;22.15;15.57;;;11.60;99.90;;;;;;5033706;28;20075;-62
2022/03/15 11:29:34;;;;;;;20.13;13.25;;;12.00;99.90;;;;;;5052034;28;20167;-62
2022/03/15 11:32:01;;;;;;;21.55;15.15;;;11.70;99.90;;;;;;5032616;28;20048;-62
2022/03/15 11:34:27;;;;;;;21.70;13.38;;;11.60;99.90;;;;;;5053128;28;20102;-62
2022/03/15 11:36:54;;;;;;;22.50;15.70;;;11.10;99.90;;;;;;5055449;28;20040;-62
2022/03/15 11:39:20;;;;;;;26.25;15.13;;;11.30;99.90;;;;;;5054327;28;20049;-62
2022/03/15 11:41:46;;;;;;;19.85;13.75;;;11.50;99.90;;;;;;5016807;28;20057;-62
2022/03/15 11:44:25;;;;;;;23.15;14.68;;;10.70;99.90;;;;;;5035257;28;20103;-62
2022/03/15 11:47:01;;;;;;;24.55;14.75;;;11.10;99.90;;;;;;5033150;28;20041;-62
2022/03/15 11:49:30;;;;;;;24.70;14.60;;;10.80;99.90;;;;;;5035366;28;20128;-62
2022/03/15 11:52:18;;;;;;;22.25;14.63;;;11.10;99.90;;;;;;5034357;28;20521;-62
2022/03/15 11:55:02;;;;;;;20.35;13.30;;;;;;;;;;5034747;28;20053;-62
2022/03/15 11:57:35;;;;;;;19.70;13.38;;;10.50;99.90;;;;;;5035152;28;20171;-62
2022/03/15 12:00:01;;;;;;;20.05;13.93;;;11.00;99.90;;;;;;5033867;28;20502;-62
2022/03/15 12:02:36;;;;;;;24.05;12.73;;;11.20;99.90;;;;;;5034926;28;20085;-62
2022/03/15 12:05:17;;;;;;;20.95;14.15;;;11.20;99.90;;;;;;5034920;28;20168;-62
2022/03/15 12:07:46;;;;;;;21.80;13.18;;;10.80;99.90;;;;;;5033874;28;20119;-62
2022/03/15 12:10:28;;;;;;;16.00;10.27;;;11.30;99.90;;;;;;5033971;28;20041;-62
2022/03/15 12:13:02;;;;;;;16.08;11.52;;;10.60;99.90;;;;;;5037541;28;20382;-62
2022/03/15 12:15:40;;;;;;;19.17;11.23;;;10.80;99.90;;;;;;5033439;28;20037;-62
2022/03/15 12:20:59;;;;;;;23.95;12.65;;;10.80;99.90;;;;;;5032928;28;20054;-62
2022/03/15 12:23:27;;;;;;;22.85;13.15;;;10.50;99.90;;;;;;5033228;28;20056;-62
2022/03/15 12:25:56;;;;;;;19.02;12.95;;;10.70;99.90;;;;;;5033936;28;20478;-62
2022/03/15 12:28:32;;;;;;;19.77;12.75;;;11.00;99.90;;;;;;5033605;28;20041;-62
2022/03/15 12:31:06;;;;;;;18.25;12.13;;;11.20;99.90;;;;;;5014549;28;20042;-62
2022/03/15 12:33:32;;;;;;;17.17;11.55;;;10.30;99.90;;;;;;5027349;28;20045;-62
2022/03/15 12:36:05;;;;;;;15.75;10.50;;;10.70;99.90;;;;;;5031408;28;20054;-62
2022/03/15 12:38:33;;;;;;;15.18;9.57;;;10.80;99.90;;;;;;5033168;28;20431;-62
2022/03/15 12:41:01;;;;;;;16.00;8.93;;;10.70;99.90;;;;;;5032564;28;20394;-63
2022/03/15 12:43:27;;;;;;;11.98;8.52;;;;;;;;;;5048073;28;20046;-63
2022/03/15 12:45:53;;;;;;;10.48;7.05;;;;;;;;;;5031366;28;20056;-63
2022/03/15 12:48:32;;;;;;;11.48;7.97;;;10.80;99.90;;;;;;5048202;28;20037;-63
2022/03/15 12:51:01;;;;;;;11.82;6.88;;;11.20;99.90;;;;;;5047899;28;20199;-63
2022/03/15 12:54:03;;;;;;;12.55;7.35;;;11.00;99.90;;;;;;5033427;28;20056;-63